sensor_id;sensor_type;location;lat;lon;timestamp;pressure;altitude;pressure_sealevel;temperature;humidity
35892;BME280;21993;42.672;23.296;2022-12-07T00:01:29;94708.00;;;8.42;73.21
35892;BME280;21993;42.672;23.296;2022-12-07T00:03:57;94712.16;;;8.33;73.52
35892;BME280;21993;42.672;23.296;2022-12-07T00:06:26;94703.13;;;8.26;73.87
35892;BME280;21993;42.672;23.296;2022-12-07T00:08:51;94701.47;;;8.14;73.19
35892;BME280;21993;42.672;23.296;2022-12-07T00:11:19;94698.25;;;8.22;72.56
35892;BME280;21993;42.672;23.296;2022-12-07T00:13:46;94697.22;;;8.24;72.77
35892;BME280;21993;42.672;23.296;2022-12-07T00:16:14;94711.94;;;8.25;73.05
35892;BME280;21993;42.672;23.296;2022-12-07T00:18:40;94692.69;;;8.26;73.05
35892;BME280;21993;42.672;23.296;2022-12-07T00:21:23;94694.47;;;8.26;74.00
35892;BME280;21993;42.672;23.296;2022-12-07T00:23:50;94704.91;;;8.14;73.45
35892;BME280;21993;42.672;23.296;2022-12-07T00:26:37;94705.44;;;8.08;73.36
35892;BME280;21993;42.672;23.296;2022-12-07T00:29:05;94701.97;;;8.08;74.37
35892;BME280;21993;42.672;23.296;2022-12-07T00:31:33;94706.50;;;8.17;74.02
35892;BME280;21993;42.672;23.296;2022-12-07T00:34:01;94701.84;;;8.21;73.68
35892;BME280;21993;42.672;23.296;2022-12-07T00:36:26;94703.88;;;8.17;73.69
35892;BME280;21993;42.672;23.296;2022-12-07T00:38:53;94703.88;;;8.17;74.29
35892;BME280;21993;42.672;23.296;2022-12-07T00:41:23;94709.69;;;8.21;73.96
35892;BME280;21993;42.672;23.296;2022-12-07T00:43:49;94707.41;;;8.27;74.10
35892;BME280;21993;42.672;23.296;2022-12-07T00:46:16;94706.72;;;8.25;73.98
35892;BME280;21993;42.672;23.296;2022-12-07T00:48:42;94696.00;;;8.28;74.48
35892;BME280;21993;42.672;23.296;2022-12-07T00:51:09;94698.41;;;8.09;74.62
35892;BME280;21993;42.672;23.296;2022-12-07T00:53:36;94699.47;;;8.17;75.24
35892;BME280;21993;42.672;23.296;2022-12-07T00:56:09;94692.28;;;8.31;74.30
35892;BME280;21993;42.672;23.296;2022-12-07T00:58:36;94700.75;;;8.34;74.76
35892;BME280;21993;42.672;23.296;2022-12-07T01:01:03;94700.66;;;8.36;74.11
35892;BME280;21993;42.672;23.296;2022-12-07T01:03:29;94695.16;;;8.39;74.83
35892;BME280;21993;42.672;23.296;2022-12-07T01:05:55;94696.81;;;8.40;74.20
35892;BME280;21993;42.672;23.296;2022-12-07T01:08:22;94689.56;;;8.32;74.40
35892;BME280;21993;42.672;23.296;2022-12-07T01:10:48;94707.19;;;8.41;74.52
35892;BME280;21993;42.672;23.296;2022-12-07T01:13:14;94690.28;;;8.34;73.98
35892;BME280;21993;42.672;23.296;2022-12-07T01:15:44;94686.00;;;8.33;74.41
35892;BME280;21993;42.672;23.296;2022-12-07T01:18:10;94682.44;;;8.23;75.11
35892;BME280;21993;42.672;23.296;2022-12-07T01:20:35;94685.88;;;8.24;73.82
35892;BME280;21993;42.672;23.296;2022-12-07T01:23:02;94686.25;;;8.30;74.65
35892;BME280;21993;42.672;23.296;2022-12-07T01:25:28;94680.06;;;8.42;74.37
35892;BME280;21993;42.672;23.296;2022-12-07T01:27:53;94675.31;;;8.36;74.79
35892;BME280;21993;42.672;23.296;2022-12-07T01:30:18;94674.81;;;8.31;74.68
35892;BME280;21993;42.672;23.296;2022-12-07T01:32:44;94673.88;;;8.32;74.71
35892;BME280;21993;42.672;23.296;2022-12-07T01:35:09;94677.34;;;8.33;74.89
35892;BME280;21993;42.672;23.296;2022-12-07T01:37:36;94668.44;;;8.35;74.42
35892;BME280;21993;42.672;23.296;2022-12-07T01:40:03;94675.56;;;8.33;74.46
35892;BME280;21993;42.672;23.296;2022-12-07T01:42:29;94677.69;;;8.28;75.46
35892;BME280;21993;42.672;23.296;2022-12-07T01:47:44;94682.22;;;8.26;75.50
35892;BME280;21993;42.672;23.296;2022-12-07T01:50:12;94672.34;;;8.30;75.21
35892;BME280;21993;42.672;23.296;2022-12-07T01:52:39;94672.34;;;8.30;75.08
35892;BME280;21993;42.672;23.296;2022-12-07T01:55:08;94666.16;;;8.31;74.42
35892;BME280;21993;42.672;23.296;2022-12-07T01:57:37;94673.41;;;8.27;74.56
35892;BME280;21993;42.672;23.296;2022-12-07T02:00:06;94666.41;;;8.39;75.09
35892;BME280;21993;42.672;23.296;2022-12-07T02:02:39;94657.16;;;8.35;73.73
35892;BME280;21993;42.672;23.296;2022-12-07T02:05:07;94650.03;;;8.14;74.63
35892;BME280;21993;42.672;23.296;2022-12-07T02:07:34;94646.84;;;8.11;75.28
35892;BME280;21993;42.672;23.296;2022-12-07T02:10:23;94659.78;;;8.12;75.45
35892;BME280;21993;42.672;23.296;2022-12-07T02:12:56;94659.19;;;8.09;75.98
35892;BME280;21993;42.672;23.296;2022-12-07T02:15:26;94652.63;;;8.14;75.81
35892;BME280;21993;42.672;23.296;2022-12-07T02:18:07;94663.22;;;8.13;74.85
35892;BME280;21993;42.672;23.296;2022-12-07T02:20:47;94662.41;;;8.12;75.71
35892;BME280;21993;42.672;23.296;2022-12-07T02:23:41;94658.25;;;8.10;74.97
35892;BME280;21993;42.672;23.296;2022-12-07T02:29:10;94653.38;;;8.16;74.55
35892;BME280;21993;42.672;23.296;2022-12-07T02:31:38;94651.06;;;8.23;75.45
35892;BME280;21993;42.672;23.296;2022-12-07T02:36:47;94647.91;;;8.08;75.60
35892;BME280;21993;42.672;23.296;2022-12-07T02:40:05;94649.47;;;8.00;75.04
35892;BME280;21993;42.672;23.296;2022-12-07T02:42:12;94654.31;;;8.04;75.17
35892;BME280;21993;42.672;23.296;2022-12-07T02:44:39;94656.09;;;8.04;74.75
35892;BME280;21993;42.672;23.296;2022-12-07T02:47:09;94645.09;;;8.00;75.32
35892;BME280;21993;42.672;23.296;2022-12-07T02:49:37;94650.19;;;8.02;75.47
35892;BME280;21993;42.672;23.296;2022-12-07T02:52:04;94651.63;;;7.95;75.36
35892;BME280;21993;42.672;23.296;2022-12-07T02:54:29;94634.13;;;8.06;74.87
35892;BME280;21993;42.672;23.296;2022-12-07T02:57:17;94631.41;;;8.08;74.89
35892;BME280;21993;42.672;23.296;2022-12-07T03:02:57;94633.19;;;8.07;74.79
35892;BME280;21993;42.672;23.296;2022-12-07T03:05:49;94632.22;;;8.08;74.89
35892;BME280;21993;42.672;23.296;2022-12-07T03:08:41;94633.31;;;7.95;75.81
35892;BME280;21993;42.672;23.296;2022-12-07T03:11:14;94629.53;;;7.87;75.56
35892;BME280;21993;42.672;23.296;2022-12-07T03:14:09;94616.81;;;7.94;76.12
35892;BME280;21993;42.672;23.296;2022-12-07T03:16:53;94619.16;;;7.97;75.26
35892;BME280;21993;42.672;23.296;2022-12-07T03:19:24;94619.03;;;7.99;75.93
35892;BME280;21993;42.672;23.296;2022-12-07T03:21:57;94626.88;;;7.99;75.58
35892;BME280;21993;42.672;23.296;2022-12-07T03:24:27;94627.63;;;8.01;75.30
35892;BME280;21993;42.672;23.296;2022-12-07T03:27:01;94627.75;;;7.88;76.09
35892;BME280;21993;42.672;23.296;2022-12-07T03:29:33;94624.56;;;7.84;76.14
35892;BME280;21993;42.672;23.296;2022-12-07T03:32:36;94627.84;;;7.98;75.86
35892;BME280;21993;42.672;23.296;2022-12-07T03:35:10;94631.66;;;7.94;76.51
35892;BME280;21993;42.672;23.296;2022-12-07T03:37:41;94629.19;;;7.92;75.63
35892;BME280;21993;42.672;23.296;2022-12-07T03:43:01;94618.38;;;7.85;76.49
35892;BME280;21993;42.672;23.296;2022-12-07T03:45:38;94616.47;;;7.87;75.92
35892;BME280;21993;42.672;23.296;2022-12-07T03:48:28;94623.25;;;7.79;76.62
35892;BME280;21993;42.672;23.296;2022-12-07T03:51:09;94628.72;;;7.76;76.31
35892;BME280;21993;42.672;23.296;2022-12-07T03:53:41;94624.91;;;7.80;76.85
35892;BME280;21993;42.672;23.296;2022-12-07T03:56:10;94619.06;;;7.87;76.44
35892;BME280;21993;42.672;23.296;2022-12-07T03:58:36;94616.84;;;7.83;75.99
35892;BME280;21993;42.672;23.296;2022-12-07T04:01:02;94619.91;;;7.88;76.13
35892;BME280;21993;42.672;23.296;2022-12-07T04:03:28;94618.50;;;7.84;76.39
35892;BME280;21993;42.672;23.296;2022-12-07T04:05:54;94608.50;;;7.89;75.82
35892;BME280;21993;42.672;23.296;2022-12-07T04:08:19;94610.53;;;7.85;76.36
35892;BME280;21993;42.672;23.296;2022-12-07T04:10:44;94616.25;;;7.90;77.00
35892;BME280;21993;42.672;23.296;2022-12-07T04:13:10;94614.53;;;7.89;76.39
35892;BME280;21993;42.672;23.296;2022-12-07T04:15:35;94618.72;;;7.92;76.74
35892;BME280;21993;42.672;23.296;2022-12-07T04:18:01;94608.59;;;7.99;76.08
35892;BME280;21993;42.672;23.296;2022-12-07T04:20:26;94605.03;;;8.00;75.53
35892;BME280;21993;42.672;23.296;2022-12-07T04:22:51;94615.28;;;7.92;76.26
35892;BME280;21993;42.672;23.296;2022-12-07T04:25:17;94614.91;;;7.96;75.50
35892;BME280;21993;42.672;23.296;2022-12-07T04:27:42;94620.28;;;7.83;75.84
35892;BME280;21993;42.672;23.296;2022-12-07T04:30:08;94618.94;;;7.89;75.81
35892;BME280;21993;42.672;23.296;2022-12-07T04:32:33;94626.69;;;7.79;76.34
35892;BME280;21993;42.672;23.296;2022-12-07T04:34:59;94614.94;;;7.85;75.54
35892;BME280;21993;42.672;23.296;2022-12-07T04:37:24;94612.06;;;7.88;75.35
35892;BME280;21993;42.672;23.296;2022-12-07T04:39:50;94616.09;;;7.81;75.31
35892;BME280;21993;42.672;23.296;2022-12-07T04:42:15;94625.63;;;7.82;76.12
35892;BME280;21993;42.672;23.296;2022-12-07T04:44:41;94626.47;;;7.82;75.54
35892;BME280;21993;42.672;23.296;2022-12-07T04:47:06;94629.28;;;7.79;76.08
35892;BME280;21993;42.672;23.296;2022-12-07T04:49:32;94628.47;;;7.79;75.84
35892;BME280;21993;42.672;23.296;2022-12-07T04:51:57;94635.84;;;7.74;75.55
35892;BME280;21993;42.672;23.296;2022-12-07T04:54:23;94626.22;;;7.74;76.16
35892;BME280;21993;42.672;23.296;2022-12-07T04:56:48;94623.63;;;7.74;75.70
35892;BME280;21993;42.672;23.296;2022-12-07T04:59:15;94620.88;;;7.76;76.02
35892;BME280;21993;42.672;23.296;2022-12-07T05:01:41;94626.59;;;7.70;75.71
35892;BME280;21993;42.672;23.296;2022-12-07T05:04:07;94627.31;;;7.60;76.25
35892;BME280;21993;42.672;23.296;2022-12-07T05:06:33;94633.13;;;7.75;75.95
35892;BME280;21993;42.672;23.296;2022-12-07T05:08:58;94630.03;;;7.70;75.56
35892;BME280;21993;42.672;23.296;2022-12-07T05:11:24;94635.13;;;7.60;76.29
35892;BME280;21993;42.672;23.296;2022-12-07T05:14:25;94640.63;;;7.57;76.75
35892;BME280;21993;42.672;23.296;2022-12-07T05:16:51;94640.72;;;7.56;76.28
35892;BME280;21993;42.672;23.296;2022-12-07T05:19:17;94636.56;;;7.65;76.39
35892;BME280;21993;42.672;23.296;2022-12-07T05:21:43;94628.84;;;7.63;75.64
35892;BME280;21993;42.672;23.296;2022-12-07T05:24:11;94637.25;;;7.55;76.15
35892;BME280;21993;42.672;23.296;2022-12-07T05:26:37;94628.13;;;7.39;77.05
35892;BME280;21993;42.672;23.296;2022-12-07T05:29:02;94627.53;;;7.35;77.32
35892;BME280;21993;42.672;23.296;2022-12-07T05:31:28;94633.59;;;7.47;77.06
35892;BME280;21993;42.672;23.296;2022-12-07T05:33:53;94630.75;;;7.39;76.31
35892;BME280;21993;42.672;23.296;2022-12-07T05:36:19;94629.81;;;7.51;76.45
35892;BME280;21993;42.672;23.296;2022-12-07T05:38:44;94621.59;;;7.55;75.66
35892;BME280;21993;42.672;23.296;2022-12-07T05:41:14;94624.59;;;7.51;76.98
35892;BME280;21993;42.672;23.296;2022-12-07T05:43:58;94616.03;;;7.60;75.60
35892;BME280;21993;42.672;23.296;2022-12-07T05:46:23;94618.38;;;7.63;76.56
35892;BME280;21993;42.672;23.296;2022-12-07T05:48:49;94610.69;;;7.61;76.00
35892;BME280;21993;42.672;23.296;2022-12-07T05:51:14;94609.50;;;7.66;76.29
35892;BME280;21993;42.672;23.296;2022-12-07T05:53:39;94617.91;;;7.69;75.78
35892;BME280;21993;42.672;23.296;2022-12-07T05:56:05;94610.78;;;7.71;76.51
35892;BME280;21993;42.672;23.296;2022-12-07T05:58:30;94619.22;;;7.75;75.72
35892;BME280;21993;42.672;23.296;2022-12-07T06:01:14;94620.28;;;7.72;75.63
35892;BME280;21993;42.672;23.296;2022-12-07T06:03:39;94620.41;;;7.71;76.07
35892;BME280;21993;42.672;23.296;2022-12-07T06:06:05;94608.88;;;7.73;76.13
35892;BME280;21993;42.672;23.296;2022-12-07T06:08:30;94612.34;;;7.74;75.42
35892;BME280;21993;42.672;23.296;2022-12-07T06:10:56;94619.22;;;7.63;76.10
35892;BME280;21993;42.672;23.296;2022-12-07T06:13:39;94614.59;;;7.67;76.87
35892;BME280;21993;42.672;23.296;2022-12-07T06:16:05;94624.66;;;7.72;76.53
35892;BME280;21993;42.672;23.296;2022-12-07T06:18:31;94627.16;;;7.73;76.42
35892;BME280;21993;42.672;23.296;2022-12-07T06:20:56;94623.50;;;7.76;75.80
35892;BME280;21993;42.672;23.296;2022-12-07T06:23:22;94625.16;;;7.77;76.24
35892;BME280;21993;42.672;23.296;2022-12-07T06:25:47;94630.03;;;7.70;76.64
35892;BME280;21993;42.672;23.296;2022-12-07T06:28:12;94624.44;;;7.75;76.26
35892;BME280;21993;42.672;23.296;2022-12-07T06:30:38;94638.69;;;7.82;76.48
35892;BME280;21993;42.672;23.296;2022-12-07T06:33:03;94624.31;;;7.76;76.26
35892;BME280;21993;42.672;23.296;2022-12-07T06:35:29;94630.47;;;7.86;76.03
35892;BME280;21993;42.672;23.296;2022-12-07T06:37:54;94631.69;;;7.82;75.14
35892;BME280;21993;42.672;23.296;2022-12-07T06:40:19;94626.78;;;7.89;75.27
35892;BME280;21993;42.672;23.296;2022-12-07T06:42:45;94637.72;;;7.94;74.42
35892;BME280;21993;42.672;23.296;2022-12-07T06:45:10;94642.50;;;7.78;75.57
35892;BME280;21993;42.672;23.296;2022-12-07T06:47:35;94645.47;;;7.84;75.54
35892;BME280;21993;42.672;23.296;2022-12-07T06:50:02;94641.19;;;7.83;75.60
35892;BME280;21993;42.672;23.296;2022-12-07T06:52:27;94632.53;;;7.83;76.07
35892;BME280;21993;42.672;23.296;2022-12-07T06:54:53;94632.13;;;7.87;75.39
35892;BME280;21993;42.672;23.296;2022-12-07T06:57:18;94644.25;;;7.88;76.37
35892;BME280;21993;42.672;23.296;2022-12-07T06:59:45;94646.72;;;7.90;75.88
35892;BME280;21993;42.672;23.296;2022-12-07T07:02:10;94645.56;;;7.94;75.07
35892;BME280;21993;42.672;23.296;2022-12-07T07:04:36;94642.47;;;8.00;75.42
35892;BME280;21993;42.672;23.296;2022-12-07T07:07:01;94641.72;;;7.98;74.72
35892;BME280;21993;42.672;23.296;2022-12-07T07:09:26;94639.81;;;8.11;73.87
35892;BME280;21993;42.672;23.296;2022-12-07T07:11:52;94646.56;;;8.14;74.15
35892;BME280;21993;42.672;23.296;2022-12-07T07:14:17;94648.75;;;8.09;74.78
35892;BME280;21993;42.672;23.296;2022-12-07T07:16:44;94648.50;;;8.12;74.61
35892;BME280;21993;42.672;23.296;2022-12-07T07:19:09;94643.59;;;8.18;73.52
35892;BME280;21993;42.672;23.296;2022-12-07T07:21:36;94638.25;;;8.20;74.82
35892;BME280;21993;42.672;23.296;2022-12-07T07:24:01;94639.69;;;8.24;73.88
35892;BME280;21993;42.672;23.296;2022-12-07T07:26:27;94643.56;;;8.30;74.57
35892;BME280;21993;42.672;23.296;2022-12-07T07:28:52;94647.53;;;8.24;73.89
35892;BME280;21993;42.672;23.296;2022-12-07T07:31:17;94637.56;;;8.18;74.20
35892;BME280;21993;42.672;23.296;2022-12-07T07:33:45;94648.22;;;8.26;74.38
35892;BME280;21993;42.672;23.296;2022-12-07T07:36:11;94647.41;;;8.26;73.29
35892;BME280;21993;42.672;23.296;2022-12-07T07:38:36;94651.53;;;8.28;74.16
35892;BME280;21993;42.672;23.296;2022-12-07T07:41:01;94648.66;;;8.31;72.99
35892;BME280;21993;42.672;23.296;2022-12-07T07:43:27;94642.88;;;8.28;73.73
35892;BME280;21993;42.672;23.296;2022-12-07T07:45:52;94651.06;;;8.34;74.30
35892;BME280;21993;42.672;23.296;2022-12-07T07:48:18;94647.84;;;8.42;73.59
35892;BME280;21993;42.672;23.296;2022-12-07T07:50:43;94645.59;;;8.37;73.78
35892;BME280;21993;42.672;23.296;2022-12-07T07:53:08;94654.41;;;8.36;74.43
35892;BME280;21993;42.672;23.296;2022-12-07T07:55:35;94649.16;;;8.36;74.21
35892;BME280;21993;42.672;23.296;2022-12-07T07:58:01;94641.91;;;8.40;74.08
35892;BME280;21993;42.672;23.296;2022-12-07T08:00:26;94638.66;;;8.48;74.17
35892;BME280;21993;42.672;23.296;2022-12-07T08:02:52;94642.56;;;8.53;73.87
35892;BME280;21993;42.672;23.296;2022-12-07T08:05:17;94639.13;;;8.53;73.75
35892;BME280;21993;42.672;23.296;2022-12-07T08:07:43;94645.13;;;8.64;72.58
35892;BME280;21993;42.672;23.296;2022-12-07T08:10:11;94638.63;;;8.59;73.66
35892;BME280;21993;42.672;23.296;2022-12-07T08:12:38;94640.88;;;8.63;73.16
35892;BME280;21993;42.672;23.296;2022-12-07T08:15:25;94642.66;;;8.63;72.94
35892;BME280;21993;42.672;23.296;2022-12-07T08:17:50;94645.59;;;8.69;72.16
35892;BME280;21993;42.672;23.296;2022-12-07T08:20:15;94645.94;;;8.76;72.10
35892;BME280;21993;42.672;23.296;2022-12-07T08:22:41;94640.88;;;8.63;72.67
35892;BME280;21993;42.672;23.296;2022-12-07T08:25:07;94638.88;;;8.56;72.65
35892;BME280;21993;42.672;23.296;2022-12-07T08:27:32;94632.06;;;8.64;73.56
35892;BME280;21993;42.672;23.296;2022-12-07T08:29:58;94638.00;;;8.66;72.58
35892;BME280;21993;42.672;23.296;2022-12-07T08:32:23;94639.16;;;8.73;72.57
35892;BME280;21993;42.672;23.296;2022-12-07T08:34:48;94644.19;;;8.65;73.40
35892;BME280;21993;42.672;23.296;2022-12-07T08:37:15;94643.69;;;8.71;72.65
35892;BME280;21993;42.672;23.296;2022-12-07T08:39:40;94645.09;;;8.76;72.59
35892;BME280;21993;42.672;23.296;2022-12-07T08:42:05;94640.16;;;8.82;72.24
35892;BME280;21993;42.672;23.296;2022-12-07T08:44:31;94633.91;;;8.73;72.30
35892;BME280;21993;42.672;23.296;2022-12-07T08:46:59;94631.28;;;8.73;72.77
35892;BME280;21993;42.672;23.296;2022-12-07T08:49:39;94634.19;;;8.70;72.84
35892;BME280;21993;42.672;23.296;2022-12-07T08:52:05;94621.22;;;8.69;72.63
35892;BME280;21993;42.672;23.296;2022-12-07T08:54:33;94628.47;;;8.65;72.74
35892;BME280;21993;42.672;23.296;2022-12-07T08:57:00;94631.09;;;8.65;72.93
35892;BME280;21993;42.672;23.296;2022-12-07T08:59:26;94629.63;;;8.52;73.03
35892;BME280;21993;42.672;23.296;2022-12-07T09:01:52;94623.78;;;8.59;72.02
35892;BME280;21993;42.672;23.296;2022-12-07T09:04:18;94617.38;;;8.73;71.91
35892;BME280;21993;42.672;23.296;2022-12-07T09:06:43;94611.91;;;8.76;71.95
35892;BME280;21993;42.672;23.296;2022-12-07T09:09:09;94605.31;;;8.82;72.06
35892;BME280;21993;42.672;23.296;2022-12-07T09:11:36;94609.91;;;8.89;71.63
35892;BME280;21993;42.672;23.296;2022-12-07T09:14:02;94610.31;;;8.85;71.79
35892;BME280;21993;42.672;23.296;2022-12-07T09:16:27;94610.66;;;8.91;71.83
35892;BME280;21993;42.672;23.296;2022-12-07T09:18:53;94602.41;;;8.75;71.90
35892;BME280;21993;42.672;23.296;2022-12-07T09:21:19;94600.97;;;8.71;72.10
35892;BME280;21993;42.672;23.296;2022-12-07T09:23:44;94609.66;;;8.71;71.95
35892;BME280;21993;42.672;23.296;2022-12-07T09:26:09;94616.34;;;8.64;72.75
35892;BME280;21993;42.672;23.296;2022-12-07T09:28:35;94603.53;;;8.82;72.67
35892;BME280;21993;42.672;23.296;2022-12-07T09:31:02;94593.84;;;8.94;72.40
35892;BME280;21993;42.672;23.296;2022-12-07T09:33:28;94587.63;;;8.74;72.53
35892;BME280;21993;42.672;23.296;2022-12-07T09:35:53;94586.44;;;8.78;72.54
35892;BME280;21993;42.672;23.296;2022-12-07T09:38:19;94584.16;;;8.85;72.68
35892;BME280;21993;42.672;23.296;2022-12-07T09:40:46;94580.94;;;8.81;72.98
35892;BME280;21993;42.672;23.296;2022-12-07T09:43:23;94569.97;;;8.87;72.83
35892;BME280;21993;42.672;23.296;2022-12-07T09:45:51;94573.47;;;8.97;72.43
35892;BME280;21993;42.672;23.296;2022-12-07T09:48:21;94576.34;;;8.73;72.38
35892;BME280;21993;42.672;23.296;2022-12-07T09:50:49;94571.19;;;8.83;73.10
35892;BME280;21993;42.672;23.296;2022-12-07T09:53:24;94569.59;;;8.92;72.41
35892;BME280;21993;42.672;23.296;2022-12-07T09:55:50;94568.34;;;8.96;72.55
35892;BME280;21993;42.672;23.296;2022-12-07T09:58:27;94563.03;;;9.07;72.08
35892;BME280;21993;42.672;23.296;2022-12-07T10:00:59;94566.09;;;9.12;71.66
35892;BME280;21993;42.672;23.296;2022-12-07T10:03:28;94562.19;;;9.27;71.71
35892;BME280;21993;42.672;23.296;2022-12-07T10:05:55;94561.75;;;9.22;71.95
35892;BME280;21993;42.672;23.296;2022-12-07T10:08:20;94556.59;;;9.42;70.57
35892;BME280;21993;42.672;23.296;2022-12-07T10:10:50;94556.00;;;9.38;70.72
35892;BME280;21993;42.672;23.296;2022-12-07T10:13:22;94549.81;;;9.39;70.38
35892;BME280;21993;42.672;23.296;2022-12-07T10:15:58;94551.25;;;9.53;70.21
35892;BME280;21993;42.672;23.296;2022-12-07T10:18:29;94536.63;;;9.50;70.21
35892;BME280;21993;42.672;23.296;2022-12-07T10:21:12;94538.31;;;9.61;70.29
35892;BME280;21993;42.672;23.296;2022-12-07T10:23:40;94537.50;;;9.70;69.39
35892;BME280;21993;42.672;23.296;2022-12-07T10:26:25;94534.16;;;9.58;70.27
35892;BME280;21993;42.672;23.296;2022-12-07T10:28:52;94535.41;;;9.64;69.79
35892;BME280;21993;42.672;23.296;2022-12-07T10:31:20;94521.19;;;9.57;69.83
35892;BME280;21993;42.672;23.296;2022-12-07T10:33:55;94514.06;;;9.69;69.39
35892;BME280;21993;42.672;23.296;2022-12-07T10:36:25;94511.31;;;9.80;68.98
35892;BME280;21993;42.672;23.296;2022-12-07T10:39:16;94502.75;;;9.87;68.79
35892;BME280;21993;42.672;23.296;2022-12-07T10:41:59;94510.34;;;9.81;69.80
35892;BME280;21993;42.672;23.296;2022-12-07T10:44:27;94506.19;;;9.78;69.20
35892;BME280;21993;42.672;23.296;2022-12-07T10:55:16;94500.28;;;9.96;68.60
35892;BME280;21993;42.672;23.296;2022-12-07T11:00:36;94476.25;;;9.81;69.17
35892;BME280;21993;42.672;23.296;2022-12-07T11:06:16;94473.50;;;10.21;67.78
35892;BME280;21993;42.672;23.296;2022-12-07T11:09:03;94471.44;;;10.25;67.74
35892;BME280;21993;42.672;23.296;2022-12-07T11:12:13;94474.91;;;10.45;67.07
35892;BME280;21993;42.672;23.296;2022-12-07T11:17:09;94470.06;;;10.96;66.47
35892;BME280;21993;42.672;23.296;2022-12-07T11:22:51;94460.13;;;11.27;65.19
35892;BME280;21993;42.672;23.296;2022-12-07T11:25:23;94447.44;;;11.41;64.00
35892;BME280;21993;42.672;23.296;2022-12-07T11:30:31;94444.75;;;11.78;63.57
35892;BME280;21993;42.672;23.296;2022-12-07T11:35:56;94430.06;;;12.47;60.90
35892;BME280;21993;42.672;23.296;2022-12-07T11:38:49;94425.69;;;12.89;59.39
35892;BME280;21993;42.672;23.296;2022-12-07T11:41:22;94434.78;;;13.21;58.59
35892;BME280;21993;42.672;23.296;2022-12-07T11:43:53;94423.22;;;13.64;57.47
35892;BME280;21993;42.672;23.296;2022-12-07T11:46:24;94427.75;;;14.21;55.77
35892;BME280;21993;42.672;23.296;2022-12-07T11:48:55;94419.84;;;14.45;54.57
35892;BME280;21993;42.672;23.296;2022-12-07T11:51:22;94416.16;;;14.79;53.90
35892;BME280;21993;42.672;23.296;2022-12-07T11:54:12;94417.31;;;14.92;53.79
35892;BME280;21993;42.672;23.296;2022-12-07T11:56:36;94395.88;;;15.27;52.46
35892;BME280;21993;42.672;23.296;2022-12-07T12:01:56;94403.22;;;15.79;51.10
35892;BME280;21993;42.672;23.296;2022-12-07T12:04:54;94394.06;;;16.12;50.19
35892;BME280;21993;42.672;23.296;2022-12-07T12:07:23;94389.97;;;16.10;49.82
35892;BME280;21993;42.672;23.296;2022-12-07T12:10:02;94385.22;;;16.43;49.56
35892;BME280;21993;42.672;23.296;2022-12-07T12:15:17;94377.25;;;16.80;47.85
35892;BME280;21993;42.672;23.296;2022-12-07T12:18:19;94378.44;;;17.22;47.14
35892;BME280;21993;42.672;23.296;2022-12-07T12:23:21;94379.31;;;17.59;46.35
35892;BME280;21993;42.672;23.296;2022-12-07T12:25:53;94364.47;;;17.79;45.73
35892;BME280;21993;42.672;23.296;2022-12-07T12:33:31;94358.28;;;17.57;45.77
35892;BME280;21993;42.672;23.296;2022-12-07T12:38:51;94345.53;;;17.16;46.54
35892;BME280;21993;42.672;23.296;2022-12-07T12:51:58;94358.34;;;16.46;48.05
35892;BME280;21993;42.672;23.296;2022-12-07T12:54:30;94364.53;;;16.23;48.84
35892;BME280;21993;42.672;23.296;2022-12-07T12:57:12;94353.19;;;16.15;48.96
35892;BME280;21993;42.672;23.296;2022-12-07T13:02:37;94354.03;;;15.92;49.80
35892;BME280;21993;42.672;23.296;2022-12-07T13:10:34;94354.59;;;15.48;51.08
35892;BME280;21993;42.672;23.296;2022-12-07T13:23:37;94349.56;;;15.00;52.00
35892;BME280;21993;42.672;23.296;2022-12-07T13:28:52;94356.91;;;14.73;52.80
35892;BME280;21993;42.672;23.296;2022-12-07T13:33:58;94356.94;;;14.57;53.48
35892;BME280;21993;42.672;23.296;2022-12-07T13:36:25;94352.31;;;14.43;53.59
35892;BME280;21993;42.672;23.296;2022-12-07T13:38:57;94355.63;;;14.28;53.91
35892;BME280;21993;42.672;23.296;2022-12-07T13:41:27;94353.69;;;14.14;54.24
35892;BME280;21993;42.672;23.296;2022-12-07T13:44:08;94338.31;;;14.18;54.61
35892;BME280;21993;42.672;23.296;2022-12-07T13:47:00;94335.84;;;14.24;54.25
35892;BME280;21993;42.672;23.296;2022-12-07T13:49:31;94341.47;;;14.13;54.54
35892;BME280;21993;42.672;23.296;2022-12-07T13:54:59;94341.47;;;13.97;55.44
35892;BME280;21993;42.672;23.296;2022-12-07T13:57:26;94331.25;;;14.02;55.09
35892;BME280;21993;42.672;23.296;2022-12-07T13:59:52;94342.31;;;13.89;55.87
35892;BME280;21993;42.672;23.296;2022-12-07T14:02:26;94343.78;;;13.92;55.60
35892;BME280;21993;42.672;23.296;2022-12-07T14:05:15;94339.66;;;13.89;56.16
35892;BME280;21993;42.672;23.296;2022-12-07T14:08:02;94339.84;;;13.88;56.48
35892;BME280;21993;42.672;23.296;2022-12-07T14:10:41;94336.69;;;13.76;56.92
35892;BME280;21993;42.672;23.296;2022-12-07T14:15:57;94337.50;;;13.68;57.24
35892;BME280;21993;42.672;23.296;2022-12-07T14:21:27;94351.16;;;13.47;57.86
35892;BME280;21993;42.672;23.296;2022-12-07T14:26:42;94356.06;;;13.34;58.54
35892;BME280;21993;42.672;23.296;2022-12-07T14:31:45;94356.22;;;13.33;58.16
35892;BME280;21993;42.672;23.296;2022-12-07T14:34:13;94355.25;;;13.34;57.99
35892;BME280;21993;42.672;23.296;2022-12-07T14:36:39;94361.97;;;13.28;58.19
35892;BME280;21993;42.672;23.296;2022-12-07T14:39:04;94360.50;;;13.34;58.34
35892;BME280;21993;42.672;23.296;2022-12-07T14:41:29;94355.38;;;13.24;59.12
35892;BME280;21993;42.672;23.296;2022-12-07T14:44:13;94347.25;;;13.17;59.11
35892;BME280;21993;42.672;23.296;2022-12-07T14:46:39;94357.59;;;13.11;59.76
35892;BME280;21993;42.672;23.296;2022-12-07T14:49:04;94353.00;;;13.05;59.67
35892;BME280;21993;42.672;23.296;2022-12-07T14:51:30;94354.91;;;12.94;59.52
35892;BME280;21993;42.672;23.296;2022-12-07T14:53:56;94351.44;;;12.94;59.84
35892;BME280;21993;42.672;23.296;2022-12-07T14:56:24;94350.63;;;12.93;59.48